sensor_id;sensor_type;location;lat;lon;timestamp;pressure;altitude;pressure_sealevel;temperature;humidity
71666;BME280;59503;53.486;10.196;2023-08-21T00:01:14;102278.44;;;15.66;100.00
71666;BME280;59503;53.486;10.196;2023-08-21T00:03:39;102273.31;;;15.65;100.00
71666;BME280;59503;53.486;10.196;2023-08-21T00:06:05;102276.78;;;15.62;100.00
71666;BME280;59503;53.486;10.196;2023-08-21T00:08:30;102280.25;;;15.59;100.00
71666;BME280;59503;53.486;10.196;2023-08-21T00:10:56;102271.13;;;15.55;100.00
71666;BME280;59503;53.486;10.196;2023-08-21T00:13:21;102267.53;;;15.51;100.00
71666;BME280;59503;53.486;10.196;2023-08-21T00:15:47;102274.97;;;15.50;100.00
71666;BME280;59503;53.486;10.196;2023-08-21T00:18:12;102267.75;;;15.42;100.00
71666;BME280;59503;53.486;10.196;2023-08-21T00:20:38;102269.69;;;15.42;100.00
71666;BME280;59503;53.486;10.196;2023-08-21T00:23:04;102266.13;;;15.41;100.00
71666;BME280;59503;53.486;10.196;2023-08-21T00:25:29;102273.09;;;15.39;100.00
71666;BME280;59503;53.486;10.196;2023-08-21T00:27:55;102268.69;;;15.34;100.00
71666;BME280;59503;53.486;10.196;2023-08-21T00:30:20;102270.97;;;15.32;100.00
71666;BME280;59503;53.486;10.196;2023-08-21T00:32:45;102267.38;;;15.28;100.00
71666;BME280;59503;53.486;10.196;2023-08-21T00:35:11;102268.94;;;15.29;100.00
71666;BME280;59503;53.486;10.196;2023-08-21T00:37:36;102268.88;;;15.26;100.00
71666;BME280;59503;53.486;10.196;2023-08-21T00:40:02;102264.38;;;15.18;100.00
71666;BME280;59503;53.486;10.196;2023-08-21T00:42:27;102280.53;;;15.23;100.00
71666;BME280;59503;53.486;10.196;2023-08-21T00:44:53;102270.31;;;15.20;100.00
71666;BME280;59503;53.486;10.196;2023-08-21T00:47:18;102272.69;;;15.21;100.00
71666;BME280;59503;53.486;10.196;2023-08-21T00:49:44;102264.28;;;15.14;100.00
71666;BME280;59503;53.486;10.196;2023-08-21T00:52:14;102265.44;;;15.13;100.00
71666;BME280;59503;53.486;10.196;2023-08-21T00:54:40;102271.66;;;15.10;100.00
71666;BME280;59503;53.486;10.196;2023-08-21T00:57:05;102270.31;;;15.04;100.00
71666;BME280;59503;53.486;10.196;2023-08-21T00:59:31;102277.75;;;15.04;100.00
71666;BME280;59503;53.486;10.196;2023-08-21T01:01:57;102282.69;;;14.98;100.00
71666;BME280;59503;53.486;10.196;2023-08-21T01:04:22;102275.97;;;14.95;100.00
71666;BME280;59503;53.486;10.196;2023-08-21T01:06:48;102276.69;;;14.92;100.00
71666;BME280;59503;53.486;10.196;2023-08-21T01:09:19;102275.88;;;14.92;100.00
71666;BME280;59503;53.486;10.196;2023-08-21T01:12:09;102268.38;;;14.89;100.00
71666;BME280;59503;53.486;10.196;2023-08-21T01:14:46;102275.00;;;14.88;100.00
71666;BME280;59503;53.486;10.196;2023-08-21T01:17:16;102276.03;;;14.83;100.00
71666;BME280;59503;53.486;10.196;2023-08-21T01:19:44;102273.25;;;14.80;100.00
71666;BME280;59503;53.486;10.196;2023-08-21T01:22:11;102271.19;;;14.77;100.00
71666;BME280;59503;53.486;10.196;2023-08-21T01:24:37;102271.19;;;14.77;100.00
71666;BME280;59503;53.486;10.196;2023-08-21T01:27:03;102275.44;;;14.74;100.00
71666;BME280;59503;53.486;10.196;2023-08-21T01:29:29;102284.00;;;14.73;100.00
71666;BME280;59503;53.486;10.196;2023-08-21T01:32:04;102281.63;;;14.71;100.00
71666;BME280;59503;53.486;10.196;2023-08-21T01:34:32;102277.63;;;14.69;100.00
71666;BME280;59503;53.486;10.196;2023-08-21T01:36:59;102276.06;;;14.68;100.00
71666;BME280;59503;53.486;10.196;2023-08-21T01:39:25;102283.81;;;14.66;100.00
71666;BME280;59503;53.486;10.196;2023-08-21T01:41:51;102282.16;;;14.61;100.00
71666;BME280;59503;53.486;10.196;2023-08-21T01:44:17;102278.97;;;14.59;100.00
71666;BME280;59503;53.486;10.196;2023-08-21T01:46:42;102282.81;;;14.58;100.00
71666;BME280;59503;53.486;10.196;2023-08-21T01:49:07;102287.88;;;14.56;100.00
71666;BME280;59503;53.486;10.196;2023-08-21T01:51:33;102286.63;;;14.54;100.00
71666;BME280;59503;53.486;10.196;2023-08-21T01:53:58;102279.47;;;14.49;100.00
71666;BME280;59503;53.486;10.196;2023-08-21T01:56:23;102279.84;;;14.48;100.00
71666;BME280;59503;53.486;10.196;2023-08-21T01:58:49;102283.25;;;14.45;100.00
71666;BME280;59503;53.486;10.196;2023-08-21T02:01:14;102278.47;;;14.42;100.00
71666;BME280;59503;53.486;10.196;2023-08-21T02:03:40;102274.16;;;14.41;100.00
71666;BME280;59503;53.486;10.196;2023-08-21T02:06:06;102277.72;;;14.41;100.00
71666;BME280;59503;53.486;10.196;2023-08-21T02:08:32;102279.63;;;14.41;100.00
71666;BME280;59503;53.486;10.196;2023-08-21T02:10:58;102283.50;;;14.40;100.00
71666;BME280;59503;53.486;10.196;2023-08-21T02:13:23;102265.84;;;14.37;100.00
71666;BME280;59503;53.486;10.196;2023-08-21T02:15:49;102261.00;;;14.31;100.00
71666;BME280;59503;53.486;10.196;2023-08-21T02:18:14;102273.63;;;14.35;100.00
71666;BME280;59503;53.486;10.196;2023-08-21T02:20:40;102268.16;;;14.35;100.00
71666;BME280;59503;53.486;10.196;2023-08-21T02:23:05;102277.16;;;14.36;100.00
71666;BME280;59503;53.486;10.196;2023-08-21T02:25:31;102277.06;;;14.32;100.00
71666;BME280;59503;53.486;10.196;2023-08-21T02:27:57;102289.94;;;14.32;100.00
71666;BME280;59503;53.486;10.196;2023-08-21T02:30:23;102278.53;;;14.30;100.00
71666;BME280;59503;53.486;10.196;2023-08-21T02:32:51;102279.25;;;14.27;100.00
71666;BME280;59503;53.486;10.196;2023-08-21T02:35:17;102285.38;;;14.24;100.00
71666;BME280;59503;53.486;10.196;2023-08-21T02:37:42;102283.00;;;14.22;100.00
71666;BME280;59503;53.486;10.196;2023-08-21T02:40:08;102291.78;;;14.28;100.00
71666;BME280;59503;53.486;10.196;2023-08-21T02:42:34;102281.50;;;14.25;100.00
71666;BME280;59503;53.486;10.196;2023-08-21T02:44:59;102286.97;;;14.25;100.00
71666;BME280;59503;53.486;10.196;2023-08-21T02:47:28;102292.00;;;14.23;100.00
71666;BME280;59503;53.486;10.196;2023-08-21T02:49:54;102278.47;;;14.14;100.00
71666;BME280;59503;53.486;10.196;2023-08-21T02:52:19;102277.69;;;14.14;100.00
71666;BME280;59503;53.486;10.196;2023-08-21T02:54:44;102295.25;;;14.13;100.00
71666;BME280;59503;53.486;10.196;2023-08-21T02:57:10;102293.19;;;14.10;100.00
71666;BME280;59503;53.486;10.196;2023-08-21T02:59:35;102297.78;;;14.06;100.00
71666;BME280;59503;53.486;10.196;2023-08-21T03:02:01;102300.50;;;14.06;100.00
71666;BME280;59503;53.486;10.196;2023-08-21T03:04:26;102300.50;;;14.06;100.00
71666;BME280;59503;53.486;10.196;2023-08-21T03:06:51;102296.84;;;14.02;100.00
71666;BME280;59503;53.486;10.196;2023-08-21T03:09:17;102292.91;;;13.99;100.00
71666;BME280;59503;53.486;10.196;2023-08-21T03:11:42;102302.56;;;13.97;100.00
71666;BME280;59503;53.486;10.196;2023-08-21T03:14:07;102301.75;;;13.96;100.00
71666;BME280;59503;53.486;10.196;2023-08-21T03:16:33;102287.56;;;13.91;100.00
71666;BME280;59503;53.486;10.196;2023-08-21T03:18:59;102300.19;;;13.95;100.00
71666;BME280;59503;53.486;10.196;2023-08-21T03:21:26;102296.22;;;13.93;100.00
71666;BME280;59503;53.486;10.196;2023-08-21T03:23:55;102301.94;;;13.88;100.00
71666;BME280;59503;53.486;10.196;2023-08-21T03:26:20;102314.00;;;13.87;100.00
71666;BME280;59503;53.486;10.196;2023-08-21T03:28:46;102305.78;;;13.87;100.00
71666;BME280;59503;53.486;10.196;2023-08-21T03:31:11;102297.13;;;13.85;100.00
71666;BME280;59503;53.486;10.196;2023-08-21T03:33:37;102301.03;;;13.84;100.00
71666;BME280;59503;53.486;10.196;2023-08-21T03:36:02;102293.97;;;13.83;100.00
71666;BME280;59503;53.486;10.196;2023-08-21T03:38:28;102293.06;;;13.79;100.00
71666;BME280;59503;53.486;10.196;2023-08-21T03:40:53;102297.38;;;13.80;100.00
71666;BME280;59503;53.486;10.196;2023-08-21T03:43:19;102301.25;;;13.79;100.00
71666;BME280;59503;53.486;10.196;2023-08-21T03:45:44;102296.50;;;13.76;100.00
71666;BME280;59503;53.486;10.196;2023-08-21T03:48:09;102304.69;;;13.76;100.00
71666;BME280;59503;53.486;10.196;2023-08-21T03:50:35;102301.50;;;13.73;100.00
71666;BME280;59503;53.486;10.196;2023-08-21T03:53:00;102291.94;;;13.67;100.00
71666;BME280;59503;53.486;10.196;2023-08-21T03:55:25;102309.25;;;13.71;100.00
71666;BME280;59503;53.486;10.196;2023-08-21T03:57:51;102308.31;;;13.67;100.00
71666;BME280;59503;53.486;10.196;2023-08-21T04:00:16;102303.56;;;13.64;100.00
71666;BME280;59503;53.486;10.196;2023-08-21T04:02:42;102303.09;;;13.62;100.00
71666;BME280;59503;53.486;10.196;2023-08-21T04:05:07;102301.06;;;13.59;100.00
71666;BME280;59503;53.486;10.196;2023-08-21T04:07:33;102315.53;;;13.60;100.00
71666;BME280;59503;53.486;10.196;2023-08-21T04:09:58;102309.25;;;13.59;100.00
71666;BME280;59503;53.486;10.196;2023-08-21T04:12:24;102312.34;;;13.58;100.00
71666;BME280;59503;53.486;10.196;2023-08-21T04:14:49;102313.13;;;13.58;100.00
71666;BME280;59503;53.486;10.196;2023-08-21T04:17:22;102314.72;;;13.59;100.00
71666;BME280;59503;53.486;10.196;2023-08-21T04:19:48;102307.22;;;13.56;100.00
71666;BME280;59503;53.486;10.196;2023-08-21T04:22:14;102308.13;;;13.60;100.00
71666;BME280;59503;53.486;10.196;2023-08-21T04:24:41;102306.06;;;13.69;100.00
71666;BME280;59503;53.486;10.196;2023-08-21T04:27:06;102305.16;;;13.65;100.00
71666;BME280;59503;53.486;10.196;2023-08-21T04:29:32;102302.53;;;13.69;100.00
71666;BME280;59503;53.486;10.196;2023-08-21T04:31:57;102311.06;;;13.67;100.00
71666;BME280;59503;53.486;10.196;2023-08-21T04:34:22;102308.56;;;13.62;100.00
71666;BME280;59503;53.486;10.196;2023-08-21T04:36:48;102317.69;;;13.66;100.00
71666;BME280;59503;53.486;10.196;2023-08-21T04:39:14;102317.66;;;13.79;100.00
71666;BME280;59503;53.486;10.196;2023-08-21T04:41:40;102312.66;;;13.81;100.00
71666;BME280;59503;53.486;10.196;2023-08-21T04:44:06;102323.69;;;13.84;100.00
71666;BME280;59503;53.486;10.196;2023-08-21T04:46:31;102316.25;;;13.85;100.00
71666;BME280;59503;53.486;10.196;2023-08-21T04:48:56;102320.81;;;13.93;100.00
71666;BME280;59503;53.486;10.196;2023-08-21T04:51:22;102320.03;;;13.92;100.00
71666;BME280;59503;53.486;10.196;2023-08-21T04:53:48;102319.78;;;13.97;100.00
71666;BME280;59503;53.486;10.196;2023-08-21T04:56:13;102321.00;;;14.00;100.00
71666;BME280;59503;53.486;10.196;2023-08-21T04:58:38;102318.72;;;14.02;100.00
71666;BME280;59503;53.486;10.196;2023-08-21T05:01:04;102317.25;;;14.04;100.00
71666;BME280;59503;53.486;10.196;2023-08-21T05:03:30;102325.13;;;14.06;100.00
71666;BME280;59503;53.486;10.196;2023-08-21T05:05:56;102319.84;;;14.13;100.00
71666;BME280;59503;53.486;10.196;2023-08-21T05:08:25;102324.03;;;14.22;100.00
71666;BME280;59503;53.486;10.196;2023-08-21T05:11:00;102333.69;;;14.32;100.00
71666;BME280;59503;53.486;10.196;2023-08-21T05:13:26;102335.06;;;14.38;100.00
71666;BME280;59503;53.486;10.196;2023-08-21T05:15:56;102331.47;;;14.49;100.00
71666;BME280;59503;53.486;10.196;2023-08-21T05:18:23;102326.53;;;14.55;100.00
71666;BME280;59503;53.486;10.196;2023-08-21T05:20:49;102336.09;;;14.61;100.00
71666;BME280;59503;53.486;10.196;2023-08-21T05:23:17;102334.66;;;14.67;100.00
71666;BME280;59503;53.486;10.196;2023-08-21T05:25:44;102328.53;;;14.70;100.00
71666;BME280;59503;53.486;10.196;2023-08-21T05:28:09;102332.31;;;14.81;100.00
71666;BME280;59503;53.486;10.196;2023-08-21T05:30:35;102328.63;;;14.89;100.00
71666;BME280;59503;53.486;10.196;2023-08-21T05:33:02;102337.00;;;14.96;100.00
71666;BME280;59503;53.486;10.196;2023-08-21T05:35:27;102331.38;;;15.05;100.00
71666;BME280;59503;53.486;10.196;2023-08-21T05:37:52;102337.47;;;15.14;100.00
71666;BME280;59503;53.486;10.196;2023-08-21T05:40:18;102339.31;;;15.25;100.00
71666;BME280;59503;53.486;10.196;2023-08-21T05:42:44;102337.28;;;15.38;100.00
71666;BME280;59503;53.486;10.196;2023-08-21T05:45:10;102333.66;;;15.49;100.00
71666;BME280;59503;53.486;10.196;2023-08-21T05:47:35;102338.75;;;15.66;100.00
71666;BME280;59503;53.486;10.196;2023-08-21T05:50:01;102336.34;;;15.80;100.00
71666;BME280;59503;53.486;10.196;2023-08-21T05:52:27;102343.38;;;15.97;100.00
71666;BME280;59503;53.486;10.196;2023-08-21T05:54:52;102342.59;;;16.15;100.00
71666;BME280;59503;53.486;10.196;2023-08-21T05:57:17;102350.41;;;16.33;100.00
71666;BME280;59503;53.486;10.196;2023-08-21T05:59:46;102344.13;;;16.51;100.00
71666;BME280;59503;53.486;10.196;2023-08-21T06:02:13;102348.75;;;16.66;100.00
71666;BME280;59503;53.486;10.196;2023-08-21T06:04:42;102352.22;;;16.86;100.00
71666;BME280;59503;53.486;10.196;2023-08-21T06:07:08;102358.00;;;17.00;100.00
71666;BME280;59503;53.486;10.196;2023-08-21T06:09:34;102347.72;;;17.19;100.00
71666;BME280;59503;53.486;10.196;2023-08-21T06:12:00;102355.84;;;17.35;100.00
71666;BME280;59503;53.486;10.196;2023-08-21T06:14:26;102362.00;;;17.51;100.00
71666;BME280;59503;53.486;10.196;2023-08-21T06:17:02;102350.06;;;17.66;100.00
71666;BME280;59503;53.486;10.196;2023-08-21T06:19:28;102349.16;;;17.85;100.00
71666;BME280;59503;53.486;10.196;2023-08-21T06:21:55;102343.75;;;17.92;100.00
71666;BME280;59503;53.486;10.196;2023-08-21T06:24:21;102349.91;;;18.11;100.00
71666;BME280;59503;53.486;10.196;2023-08-21T06:26:46;102360.38;;;18.32;100.00
71666;BME280;59503;53.486;10.196;2023-08-21T06:29:12;102350.06;;;18.55;100.00
71666;BME280;59503;53.486;10.196;2023-08-21T06:31:37;102348.66;;;18.72;100.00
71666;BME280;59503;53.486;10.196;2023-08-21T06:34:03;102356.81;;;18.98;100.00
71666;BME280;59503;53.486;10.196;2023-08-21T06:36:28;102360.47;;;19.12;100.00
71666;BME280;59503;53.486;10.196;2023-08-21T06:38:55;102365.16;;;19.05;100.00
71666;BME280;59503;53.486;10.196;2023-08-21T06:41:20;102370.91;;;19.29;100.00
71666;BME280;59503;53.486;10.196;2023-08-21T06:43:46;102368.75;;;19.56;100.00
71666;BME280;59503;53.486;10.196;2023-08-21T06:46:11;102370.06;;;19.76;100.00
71666;BME280;59503;53.486;10.196;2023-08-21T06:48:38;102370.97;;;19.94;100.00
71666;BME280;59503;53.486;10.196;2023-08-21T06:51:05;102365.09;;;20.06;100.00
71666;BME280;59503;53.486;10.196;2023-08-21T06:53:30;102368.78;;;20.24;100.00
71666;BME280;59503;53.486;10.196;2023-08-21T06:55:56;102366.84;;;20.32;100.00
71666;BME280;59503;53.486;10.196;2023-08-21T06:58:21;102371.25;;;20.54;100.00
71666;BME280;59503;53.486;10.196;2023-08-21T07:00:47;102374.34;;;20.38;100.00
71666;BME280;59503;53.486;10.196;2023-08-21T07:03:12;102371.28;;;20.61;100.00
71666;BME280;59503;53.486;10.196;2023-08-21T07:05:38;102362.66;;;20.76;100.00
71666;BME280;59503;53.486;10.196;2023-08-21T07:08:03;102365.78;;;20.78;100.00
71666;BME280;59503;53.486;10.196;2023-08-21T07:10:29;102365.41;;;20.90;100.00
71666;BME280;59503;53.486;10.196;2023-08-21T07:12:55;102370.63;;;21.17;100.00
71666;BME280;59503;53.486;10.196;2023-08-21T07:15:20;102356.78;;;21.06;100.00
71666;BME280;59503;53.486;10.196;2023-08-21T07:17:46;102370.63;;;21.41;100.00
71666;BME280;59503;53.486;10.196;2023-08-21T07:20:11;102371.38;;;21.66;100.00
71666;BME280;59503;53.486;10.196;2023-08-21T07:22:37;102367.44;;;21.85;100.00
71666;BME280;59503;53.486;10.196;2023-08-21T07:25:03;102365.78;;;22.08;100.00
71666;BME280;59503;53.486;10.196;2023-08-21T07:27:30;102361.78;;;22.16;100.00
71666;BME280;59503;53.486;10.196;2023-08-21T07:29:56;102363.75;;;22.16;100.00
71666;BME280;59503;53.486;10.196;2023-08-21T07:32:21;102367.31;;;22.20;100.00
71666;BME280;59503;53.486;10.196;2023-08-21T07:34:47;102372.53;;;22.04;100.00
71666;BME280;59503;53.486;10.196;2023-08-21T07:37:12;102372.47;;;22.11;100.00
71666;BME280;59503;53.486;10.196;2023-08-21T07:39:37;102372.84;;;22.24;100.00
71666;BME280;59503;53.486;10.196;2023-08-21T07:42:03;102362.56;;;22.24;100.00
71666;BME280;59503;53.486;10.196;2023-08-21T07:44:28;102369.25;;;22.34;100.00
71666;BME280;59503;53.486;10.196;2023-08-21T07:46:54;102374.56;;;22.79;100.00
71666;BME280;59503;53.486;10.196;2023-08-21T07:49:19;102372.63;;;22.73;100.00
71666;BME280;59503;53.486;10.196;2023-08-21T07:51:44;102368.09;;;23.00;100.00
71666;BME280;59503;53.486;10.196;2023-08-21T07:54:10;102375.72;;;22.85;100.00
71666;BME280;59503;53.486;10.196;2023-08-21T07:56:36;102365.84;;;22.81;100.00
71666;BME280;59503;53.486;10.196;2023-08-21T07:59:02;102360.94;;;23.02;100.00
71666;BME280;59503;53.486;10.196;2023-08-21T08:01:28;102371.03;;;23.33;99.53
71666;BME280;59503;53.486;10.196;2023-08-21T08:03:53;102375.25;;;23.86;94.66
71666;BME280;59503;53.486;10.196;2023-08-21T08:06:18;102372.91;;;24.21;92.52
71666;BME280;59503;53.486;10.196;2023-08-21T08:08:44;102361.63;;;24.02;88.43
71666;BME280;59503;53.486;10.196;2023-08-21T08:11:09;102371.31;;;24.24;83.71
71666;BME280;59503;53.486;10.196;2023-08-21T08:13:35;102362.41;;;24.36;81.79
71666;BME280;59503;53.486;10.196;2023-08-21T08:16:00;102368.78;;;24.63;74.62
71666;BME280;59503;53.486;10.196;2023-08-21T08:18:26;102361.59;;;24.05;79.06
71666;BME280;59503;53.486;10.196;2023-08-21T08:20:51;102371.69;;;24.26;79.25
71666;BME280;59503;53.486;10.196;2023-08-21T08:23:19;102367.53;;;24.71;73.07
71666;BME280;59503;53.486;10.196;2023-08-21T08:25:45;102357.16;;;24.72;75.59
71666;BME280;59503;53.486;10.196;2023-08-21T08:28:11;102363.97;;;24.67;73.50
71666;BME280;59503;53.486;10.196;2023-08-21T08:30:36;102366.72;;;24.71;74.17
71666;BME280;59503;53.486;10.196;2023-08-21T08:33:02;102368.78;;;24.93;72.42
71666;BME280;59503;53.486;10.196;2023-08-21T08:35:27;102366.44;;;25.15;65.74
71666;BME280;59503;53.486;10.196;2023-08-21T08:37:53;102373.78;;;25.28;65.74
71666;BME280;59503;53.486;10.196;2023-08-21T08:40:18;102369.13;;;25.88;64.78
71666;BME280;59503;53.486;10.196;2023-08-21T08:42:43;102374.63;;;25.71;63.61
71666;BME280;59503;53.486;10.196;2023-08-21T08:45:12;102374.72;;;26.46;62.38
71666;BME280;59503;53.486;10.196;2023-08-21T08:47:39;102370.81;;;26.44;56.49
71666;BME280;59503;53.486;10.196;2023-08-21T08:50:07;102366.00;;;26.80;57.58
71666;BME280;59503;53.486;10.196;2023-08-21T08:52:37;102366.72;;;27.00;58.09
71666;BME280;59503;53.486;10.196;2023-08-21T08:55:04;102373.91;;;27.49;56.66
71666;BME280;59503;53.486;10.196;2023-08-21T08:57:31;102373.88;;;27.65;54.63
71666;BME280;59503;53.486;10.196;2023-08-21T08:59:57;102370.16;;;27.08;52.97
71666;BME280;59503;53.486;10.196;2023-08-21T09:02:25;102378.78;;;26.97;53.06
71666;BME280;59503;53.486;10.196;2023-08-21T09:04:52;102371.34;;;26.55;54.94
71666;BME280;59503;53.486;10.196;2023-08-21T09:07:17;102371.94;;;26.82;55.32
71666;BME280;59503;53.486;10.196;2023-08-21T09:09:49;102371.19;;;26.98;54.83
71666;BME280;59503;53.486;10.196;2023-08-21T09:12:16;102376.22;;;26.70;52.82
71666;BME280;59503;53.486;10.196;2023-08-21T09:14:43;102379.25;;;26.21;54.26
71666;BME280;59503;53.486;10.196;2023-08-21T09:17:09;102378.84;;;26.77;53.45
71666;BME280;59503;53.486;10.196;2023-08-21T09:19:35;102378.09;;;26.38;52.50
71666;BME280;59503;53.486;10.196;2023-08-21T09:22:16;102371.78;;;26.89;53.27
71666;BME280;59503;53.486;10.196;2023-08-21T09:25:05;102373.72;;;26.92;52.51
71666;BME280;59503;53.486;10.196;2023-08-21T09:27:37;102381.72;;;26.74;51.66
71666;BME280;59503;53.486;10.196;2023-08-21T09:30:13;102363.06;;;27.51;49.42
71666;BME280;59503;53.486;10.196;2023-08-21T09:35:17;102368.28;;;26.85;49.96
71666;BME280;59503;53.486;10.196;2023-08-21T09:37:46;102361.16;;;26.84;50.34
71666;BME280;59503;53.486;10.196;2023-08-21T09:40:11;102361.72;;;27.72;49.63
71666;BME280;59503;53.486;10.196;2023-08-21T09:42:39;102364.16;;;27.70;48.69
71666;BME280;59503;53.486;10.196;2023-08-21T09:45:04;102355.03;;;26.53;49.79
71666;BME280;59503;53.486;10.196;2023-08-21T09:47:31;102365.69;;;26.58;49.88
71666;BME280;59503;53.486;10.196;2023-08-21T09:49:58;102357.19;;;26.81;50.68
71666;BME280;59503;53.486;10.196;2023-08-21T09:52:24;102355.78;;;26.38;54.11
71666;BME280;59503;53.486;10.196;2023-08-21T09:54:53;102358.41;;;25.86;53.65
71666;BME280;59503;53.486;10.196;2023-08-21T09:57:22;102366.75;;;25.66;55.20
71666;BME280;59503;53.486;10.196;2023-08-21T09:59:51;102358.28;;;25.50;56.24
71666;BME280;59503;53.486;10.196;2023-08-21T10:02:17;102358.38;;;25.20;56.90
71666;BME280;59503;53.486;10.196;2023-08-21T10:04:45;102353.28;;;25.15;56.02
71666;BME280;59503;53.486;10.196;2023-08-21T10:07:10;102361.41;;;25.06;56.54
71666;BME280;59503;53.486;10.196;2023-08-21T10:09:39;102345.13;;;24.78;56.75
71666;BME280;59503;53.486;10.196;2023-08-21T10:12:06;102347.41;;;24.56;60.36
71666;BME280;59503;53.486;10.196;2023-08-21T10:14:33;102350.25;;;24.53;60.71
71666;BME280;59503;53.486;10.196;2023-08-21T10:16:59;102349.91;;;24.51;64.25
71666;BME280;59503;53.486;10.196;2023-08-21T10:19:30;102350.63;;;24.25;59.58
71666;BME280;59503;53.486;10.196;2023-08-21T10:21:56;102349.53;;;23.82;60.62
71666;BME280;59503;53.486;10.196;2023-08-21T10:24:41;102340.19;;;23.65;60.02
71666;BME280;59503;53.486;10.196;2023-08-21T10:27:07;102348.50;;;23.69;64.42
71666;BME280;59503;53.486;10.196;2023-08-21T10:29:33;102342.13;;;23.68;62.63
71666;BME280;59503;53.486;10.196;2023-08-21T10:32:03;102355.63;;;23.66;63.57
71666;BME280;59503;53.486;10.196;2023-08-21T10:34:36;102348.84;;;23.71;65.71
71666;BME280;59503;53.486;10.196;2023-08-21T10:37:07;102342.31;;;23.51;64.24
71666;BME280;59503;53.486;10.196;2023-08-21T10:39:35;102355.38;;;23.54;63.11
71666;BME280;59503;53.486;10.196;2023-08-21T10:42:10;102351.03;;;23.53;67.55
71666;BME280;59503;53.486;10.196;2023-08-21T10:44:48;102353.84;;;23.46;63.37
71666;BME280;59503;53.486;10.196;2023-08-21T10:49:43;102361.03;;;23.43;63.06
71666;BME280;59503;53.486;10.196;2023-08-21T10:52:09;102354.28;;;23.41;64.40
71666;BME280;59503;53.486;10.196;2023-08-21T10:54:47;102359.94;;;23.33;64.45
71666;BME280;59503;53.486;10.196;2023-08-21T10:57:13;102347.56;;;23.42;66.34
71666;BME280;59503;53.486;10.196;2023-08-21T10:59:58;102349.19;;;23.35;66.00
71666;BME280;59503;53.486;10.196;2023-08-21T11:02:25;102345.22;;;23.37;62.93
71666;BME280;59503;53.486;10.196;2023-08-21T11:04:51;102345.91;;;23.48;63.98
71666;BME280;59503;53.486;10.196;2023-08-21T11:07:17;102344.59;;;23.59;62.73
71666;BME280;59503;53.486;10.196;2023-08-21T11:09:43;102349.66;;;23.68;63.02
71666;BME280;59503;53.486;10.196;2023-08-21T11:12:14;102349.28;;;23.66;61.34
71666;BME280;59503;53.486;10.196;2023-08-21T11:14:40;102350.50;;;23.65;58.69
71666;BME280;59503;53.486;10.196;2023-08-21T11:17:06;102348.53;;;23.65;58.07
71666;BME280;59503;53.486;10.196;2023-08-21T11:19:33;102351.13;;;23.79;59.07
71666;BME280;59503;53.486;10.196;2023-08-21T11:22:02;102350.06;;;23.70;60.11
71666;BME280;59503;53.486;10.196;2023-08-21T11:27:12;102342.75;;;23.83;60.88
71666;BME280;59503;53.486;10.196;2023-08-21T11:29:44;102338.25;;;23.96;62.50
71666;BME280;59503;53.486;10.196;2023-08-21T11:32:12;102338.78;;;24.21;65.61
71666;BME280;59503;53.486;10.196;2023-08-21T11:34:37;102344.22;;;24.28;60.23
71666;BME280;59503;53.486;10.196;2023-08-21T11:37:04;102342.38;;;24.48;61.07
71666;BME280;59503;53.486;10.196;2023-08-21T11:39:47;102333.66;;;24.76;58.59
71666;BME280;59503;53.486;10.196;2023-08-21T11:42:14;102347.00;;;24.88;57.40
71666;BME280;59503;53.486;10.196;2023-08-21T11:44:58;102339.84;;;24.87;58.68
71666;BME280;59503;53.486;10.196;2023-08-21T11:47:30;102351.25;;;24.96;58.00
71666;BME280;59503;53.486;10.196;2023-08-21T11:49:56;102350.81;;;24.98;57.07
71666;BME280;59503;53.486;10.196;2023-08-21T11:52:23;102353.22;;;24.96;59.89
71666;BME280;59503;53.486;10.196;2023-08-21T11:54:53;102351.25;;;24.96;56.46
71666;BME280;59503;53.486;10.196;2023-08-21T11:57:20;102337.44;;;24.89;58.11
71666;BME280;59503;53.486;10.196;2023-08-21T11:59:53;102335.25;;;25.00;58.57
71666;BME280;59503;53.486;10.196;2023-08-21T12:02:23;102347.13;;;25.04;55.76
71666;BME280;59503;53.486;10.196;2023-08-21T12:04:53;102338.41;;;25.02;54.54
71666;BME280;59503;53.486;10.196;2023-08-21T12:07:18;102343.75;;;25.16;59.18
71666;BME280;59503;53.486;10.196;2023-08-21T12:09:47;102346.22;;;25.11;57.72
71666;BME280;59503;53.486;10.196;2023-08-21T12:12:14;102335.03;;;24.91;58.72
71666;BME280;59503;53.486;10.196;2023-08-21T12:14:39;102334.50;;;25.00;56.17
71666;BME280;59503;53.486;10.196;2023-08-21T12:17:05;102339.25;;;25.22;54.46
71666;BME280;59503;53.486;10.196;2023-08-21T12:19:30;102333.50;;;25.36;54.32
71666;BME280;59503;53.486;10.196;2023-08-21T12:21:56;102343.53;;;25.53;56.05
71666;BME280;59503;53.486;10.196;2023-08-21T12:24:23;102339.75;;;25.40;52.38
71666;BME280;59503;53.486;10.196;2023-08-21T12:26:48;102333.88;;;25.35;50.60
71666;BME280;59503;53.486;10.196;2023-08-21T12:29:14;102333.44;;;25.40;51.50
71666;BME280;59503;53.486;10.196;2023-08-21T12:31:39;102332.06;;;25.25;52.64
71666;BME280;59503;53.486;10.196;2023-08-21T12:34:04;102332.19;;;25.18;53.00
71666;BME280;59503;53.486;10.196;2023-08-21T12:36:30;102331.97;;;25.32;52.74
71666;BME280;59503;53.486;10.196;2023-08-21T12:38:55;102331.06;;;25.38;53.27